TimePST,TemperatureF,Dew PointF,Humidity,Sea Level PressureIn,VisibilityMPH,Wind Direction,Wind SpeedMPH,Gust SpeedMPH,PrecipitationIn,Events,Conditions,WindDirDegrees,DateUTC
12:54 AM,41.0,36.0,82,30.21,10.0,ENE,3.5,-,N/A,,Clear,70,2014-01-01 08:54:00
1:54 AM,41.0,37.0,86,30.20,10.0,East,4.6,-,N/A,,Clear,100,2014-01-01 09:54:00
2:54 AM,39.9,35.1,83,30.20,9.0,East,4.6,-,N/A,,Clear,80,2014-01-01 10:54:00
3:54 AM,39.9,34.0,79,30.19,10.0,ESE,3.5,-,N/A,,Clear,110,2014-01-01 11:54:00
4:54 AM,41.0,33.1,73,30.17,10.0,East,4.6,-,N/A,,Clear,100,2014-01-01 12:54:00
5:54 AM,39.9,33.1,77,30.17,10.0,Calm,Calm,-,N/A,,Clear,0,2014-01-01 13:54:00
6:54 AM,39.0,30.9,73,30.19,10.0,Variable,3.5,-,N/A,,Clear,0,2014-01-01 14:54:00
7:54 AM,39.0,28.9,67,30.20,10.0,East,3.5,-,N/A,,Clear,100,2014-01-01 15:54:00
8:54 AM,46.9,30.0,52,30.21,10.0,ENE,4.6,-,N/A,,Clear,70,2014-01-01 16:54:00
9:54 AM,52.0,36.0,54,30.23,10.0,Calm,Calm,-,N/A,,Clear,0,2014-01-01 17:54:00
10:54 AM,57.0,37.9,49,30.21,10.0,Calm,Calm,-,N/A,,Clear,0,2014-01-01 18:54:00
11:54 AM,59.0,34.0,39,30.18,10.0,SW,5.8,-,N/A,,Clear,230,2014-01-01 19:54:00
12:54 PM,63.0,35.1,35,30.16,10.0,WSW,3.5,-,N/A,,Clear,240,2014-01-01 20:54:00
1:54 PM,60.1,39.9,47,30.15,10.0,WNW,5.8,-,N/A,,Clear,300,2014-01-01 21:54:00
2:54 PM,57.9,41.0,53,30.15,10.0,Calm,Calm,-,N/A,,Clear,0,2014-01-01 22:54:00
3:54 PM,59.0,41.0,51,30.15,10.0,NW,4.6,-,N/A,,Clear,310,2014-01-01 23:54:00
4:54 PM,55.0,48.9,80,30.16,7.0,Calm,Calm,-,N/A,,Clear,0,2014-01-02 00:54:00
5:54 PM,51.1,46.0,83,30.16,10.0,Calm,Calm,-,N/A,,Clear,0,2014-01-02 01:54:00
6:54 PM,50.0,41.0,71,30.16,10.0,Calm,Calm,-,N/A,,Clear,0,2014-01-02 02:54:00
7:54 PM,46.9,35.1,63,30.17,10.0,East,4.6,-,N/A,,Clear,80,2014-01-02 03:54:00
8:54 PM,46.9,32.0,56,30.17,10.0,East,4.6,-,N/A,,Clear,80,2014-01-02 04:54:00
9:54 PM,46.0,30.9,56,30.18,10.0,East,4.6,-,N/A,,Clear,90,2014-01-02 05:54:00
10:54 PM,46.0,30.0,54,30.18,10.0,East,5.8,-,N/A,,Clear,100,2014-01-02 06:54:00
11:54 PM,45.0,30.0,56,30.17,10.0,East,8.1,-,N/A,,Clear,100,2014-01-02 07:54:00